KGC weather

Kingscote Airport
South Australia, Australia

Public forecast

Using degrees Celsius for public forecast. Weather courtesy of forecast.io.

METAR (pilot weather report)

Closest report is Adelaide International Airport, 67.7 nm (125.3 km) NE. Retrieved 2019/03/27 00:00 UTC (3 minutes ago):

YPAD 270000Z 02005KT 340V070 9999 FEW035 20/10 Q1023 NOSIG

TAF (pilot weather forecast)

Forecast is more than 12 hours old.

Closest forecast is Adelaide International Airport, 67.7 nm (125.3 km) NE. Retrieved 2019/03/26 00:00 UTC (1 day ago):

TAF YPAD 262303Z 2700/2806 VRB03KT CAVOK FM270200 25006KT CAVOK FM270600 21008KT CAVOK FM271000 VRB05KT CAVOK FM280200 31010KT CAVOK